sensor_id;sensor_type;location;lat;lon;timestamp;pressure;altitude;pressure_sealevel;temperature;humidity
13695;BME280;6919;52.344;14.518;2023-04-09T00:01:38;101814.53;;;2.36;100.00
13695;BME280;6919;52.344;14.518;2023-04-09T00:04:07;101808.94;;;2.42;100.00
13695;BME280;6919;52.344;14.518;2023-04-09T00:06:36;101808.69;;;2.65;100.00
13695;BME280;6919;52.344;14.518;2023-04-09T00:09:04;101808.91;;;2.60;100.00
13695;BME280;6919;52.344;14.518;2023-04-09T00:11:33;101813.44;;;2.58;100.00
13695;BME280;6919;52.344;14.518;2023-04-09T00:14:02;101806.75;;;2.68;100.00
13695;BME280;6919;52.344;14.518;2023-04-09T00:16:32;101808.59;;;2.85;100.00
13695;BME280;6919;52.344;14.518;2023-04-09T00:19:01;101809.66;;;2.81;100.00
13695;BME280;6919;52.344;14.518;2023-04-09T00:21:29;101809.75;;;2.79;100.00
13695;BME280;6919;52.344;14.518;2023-04-09T00:23:58;101799.44;;;2.73;100.00
13695;BME280;6919;52.344;14.518;2023-04-09T00:26:27;101808.22;;;2.74;100.00
13695;BME280;6919;52.344;14.518;2023-04-09T00:28:55;101801.56;;;2.84;100.00
13695;BME280;6919;52.344;14.518;2023-04-09T00:31:24;101804.44;;;2.96;100.00
13695;BME280;6919;52.344;14.518;2023-04-09T00:33:54;101804.16;;;2.67;100.00
13695;BME280;6919;52.344;14.518;2023-04-09T00:36:22;101805.25;;;2.46;100.00
13695;BME280;6919;52.344;14.518;2023-04-09T00:38:53;101805.81;;;2.34;100.00
13695;BME280;6919;52.344;14.518;2023-04-09T00:41:21;101800.03;;;2.26;100.00
13695;BME280;6919;52.344;14.518;2023-04-09T00:43:50;101802.94;;;2.20;100.00
13695;BME280;6919;52.344;14.518;2023-04-09T00:46:18;101802.50;;;2.47;100.00
13695;BME280;6919;52.344;14.518;2023-04-09T00:48:47;101804.78;;;2.55;100.00
13695;BME280;6919;52.344;14.518;2023-04-09T00:51:18;101808.56;;;2.68;100.00
13695;BME280;6919;52.344;14.518;2023-04-09T00:53:47;101799.47;;;2.55;100.00
13695;BME280;6919;52.344;14.518;2023-04-09T00:56:17;101790.47;;;2.59;100.00
13695;BME280;6919;52.344;14.518;2023-04-09T00:58:46;101792.78;;;2.48;100.00
13695;BME280;6919;52.344;14.518;2023-04-09T01:01:14;101786.59;;;2.47;100.00
13695;BME280;6919;52.344;14.518;2023-04-09T01:03:43;101790.78;;;2.34;100.00
13695;BME280;6919;52.344;14.518;2023-04-09T01:06:24;101785.78;;;2.47;100.00
13695;BME280;6919;52.344;14.518;2023-04-09T01:08:59;101778.78;;;2.46;100.00
13695;BME280;6919;52.344;14.518;2023-04-09T01:11:35;101790.06;;;2.49;100.00
13695;BME280;6919;52.344;14.518;2023-04-09T01:14:11;101782.19;;;2.48;100.00
13695;BME280;6919;52.344;14.518;2023-04-09T01:16:43;101784.00;;;2.29;100.00
13695;BME280;6919;52.344;14.518;2023-04-09T01:19:22;101780.91;;;2.38;100.00
13695;BME280;6919;52.344;14.518;2023-04-09T01:21:58;101772.50;;;2.65;100.00
13695;BME280;6919;52.344;14.518;2023-04-09T01:24:39;101779.34;;;2.69;100.00
13695;BME280;6919;52.344;14.518;2023-04-09T01:27:12;101780.19;;;2.53;100.00
13695;BME280;6919;52.344;14.518;2023-04-09T01:29:46;101780.19;;;2.53;100.00
13695;BME280;6919;52.344;14.518;2023-04-09T01:32:17;101776.63;;;2.71;100.00
13695;BME280;6919;52.344;14.518;2023-04-09T01:34:47;101776.78;;;2.68;100.00
13695;BME280;6919;52.344;14.518;2023-04-09T01:37:16;101781.44;;;2.63;100.00
13695;BME280;6919;52.344;14.518;2023-04-09T01:39:45;101776.34;;;2.41;100.00
13695;BME280;6919;52.344;14.518;2023-04-09T01:42:15;101774.44;;;2.26;100.00
13695;BME280;6919;52.344;14.518;2023-04-09T01:44:46;101775.56;;;2.21;100.00
13695;BME280;6919;52.344;14.518;2023-04-09T01:47:15;101777.16;;;2.25;100.00
13695;BME280;6919;52.344;14.518;2023-04-09T01:49:44;101770.06;;;2.25;100.00
13695;BME280;6919;52.344;14.518;2023-04-09T01:52:13;101774.13;;;2.14;100.00
13695;BME280;6919;52.344;14.518;2023-04-09T01:54:42;101761.00;;;2.12;100.00
13695;BME280;6919;52.344;14.518;2023-04-09T01:57:10;101764.94;;;2.04;100.00
13695;BME280;6919;52.344;14.518;2023-04-09T01:59:39;101765.72;;;2.06;100.00
13695;BME280;6919;52.344;14.518;2023-04-09T02:02:11;101764.28;;;1.99;100.00
13695;BME280;6919;52.344;14.518;2023-04-09T02:04:47;101765.06;;;2.01;100.00
13695;BME280;6919;52.344;14.518;2023-04-09T02:07:27;101768.81;;;1.97;100.00
13695;BME280;6919;52.344;14.518;2023-04-09T02:10:00;101770.56;;;1.96;100.00
13695;BME280;6919;52.344;14.518;2023-04-09T02:12:34;101770.72;;;1.93;100.00
13695;BME280;6919;52.344;14.518;2023-04-09T02:15:05;101769.06;;;1.91;100.00
13695;BME280;6919;52.344;14.518;2023-04-09T02:17:36;101764.13;;;1.83;100.00
13695;BME280;6919;52.344;14.518;2023-04-09T02:20:08;101771.16;;;1.84;100.00
13695;BME280;6919;52.344;14.518;2023-04-09T02:22:38;101782.38;;;1.89;100.00
13695;BME280;6919;52.344;14.518;2023-04-09T02:25:07;101785.34;;;1.82;100.00
13695;BME280;6919;52.344;14.518;2023-04-09T02:27:36;101784.09;;;1.72;100.00
13695;BME280;6919;52.344;14.518;2023-04-09T02:30:05;101782.56;;;1.85;100.00
13695;BME280;6919;52.344;14.518;2023-04-09T02:32:35;101787.78;;;1.86;100.00
13695;BME280;6919;52.344;14.518;2023-04-09T02:35:04;101785.41;;;1.80;100.00
13695;BME280;6919;52.344;14.518;2023-04-09T02:37:33;101790.38;;;1.88;100.00
13695;BME280;6919;52.344;14.518;2023-04-09T02:40:02;101793.94;;;1.87;100.00
13695;BME280;6919;52.344;14.518;2023-04-09T02:42:31;101796.47;;;1.90;100.00
13695;BME280;6919;52.344;14.518;2023-04-09T02:44:59;101793.44;;;1.79;100.00
13695;BME280;6919;52.344;14.518;2023-04-09T02:47:28;101793.59;;;1.76;100.00
13695;BME280;6919;52.344;14.518;2023-04-09T02:49:58;101789.50;;;1.69;100.00
13695;BME280;6919;52.344;14.518;2023-04-09T02:52:26;101797.13;;;1.75;100.00
13695;BME280;6919;52.344;14.518;2023-04-09T02:54:55;101797.59;;;2.03;100.00
13695;BME280;6919;52.344;14.518;2023-04-09T02:57:23;101796.69;;;2.04;100.00
13695;BME280;6919;52.344;14.518;2023-04-09T02:59:52;101796.22;;;2.13;100.00
13695;BME280;6919;52.344;14.518;2023-04-09T03:02:20;101803.75;;;2.22;100.00
13695;BME280;6919;52.344;14.518;2023-04-09T03:04:49;101810.69;;;2.24;100.00
13695;BME280;6919;52.344;14.518;2023-04-09T03:07:21;101812.47;;;2.24;100.00
13695;BME280;6919;52.344;14.518;2023-04-09T03:09:49;101812.38;;;2.25;100.00
13695;BME280;6919;52.344;14.518;2023-04-09T03:12:18;101814.19;;;2.25;100.00
13695;BME280;6919;52.344;14.518;2023-04-09T03:14:46;101820.75;;;2.35;100.00
13695;BME280;6919;52.344;14.518;2023-04-09T03:17:15;101820.03;;;2.50;100.00
13695;BME280;6919;52.344;14.518;2023-04-09T03:19:43;101820.19;;;2.47;100.00
13695;BME280;6919;52.344;14.518;2023-04-09T03:22:12;101824.59;;;2.46;100.00
13695;BME280;6919;52.344;14.518;2023-04-09T03:24:42;101827.03;;;2.51;100.00
13695;BME280;6919;52.344;14.518;2023-04-09T03:27:10;101830.03;;;2.43;100.00
13695;BME280;6919;52.344;14.518;2023-04-09T03:29:39;101828.06;;;2.48;100.00
13695;BME280;6919;52.344;14.518;2023-04-09T03:32:07;101834.91;;;2.52;100.00
13695;BME280;6919;52.344;14.518;2023-04-09T03:34:36;101828.59;;;2.55;100.00
13695;BME280;6919;52.344;14.518;2023-04-09T03:37:04;101845.28;;;2.57;100.00
13695;BME280;6919;52.344;14.518;2023-04-09T03:39:33;101833.91;;;2.55;100.00
13695;BME280;6919;52.344;14.518;2023-04-09T03:42:03;101844.06;;;2.64;100.00
13695;BME280;6919;52.344;14.518;2023-04-09T03:44:31;101839.66;;;2.81;100.00
13695;BME280;6919;52.344;14.518;2023-04-09T03:47:00;101841.59;;;2.78;100.00
13695;BME280;6919;52.344;14.518;2023-04-09T03:49:29;101837.31;;;2.92;100.00
13695;BME280;6919;52.344;14.518;2023-04-09T03:51:58;101833.28;;;3.02;100.00
13695;BME280;6919;52.344;14.518;2023-04-09T03:54:28;101837.28;;;3.11;100.00
13695;BME280;6919;52.344;14.518;2023-04-09T03:56:57;101839.94;;;3.28;100.00
13695;BME280;6919;52.344;14.518;2023-04-09T03:59:27;101831.81;;;2.97;100.00
13695;BME280;6919;52.344;14.518;2023-04-09T04:01:55;101836.13;;;2.81;100.00
13695;BME280;6919;52.344;14.518;2023-04-09T04:04:24;101833.22;;;2.68;100.00
13695;BME280;6919;52.344;14.518;2023-04-09T04:06:53;101833.53;;;2.62;100.00
13695;BME280;6919;52.344;14.518;2023-04-09T04:09:22;101833.00;;;2.73;100.00
13695;BME280;6919;52.344;14.518;2023-04-09T04:11:50;101835.03;;;2.68;100.00
13695;BME280;6919;52.344;14.518;2023-04-09T04:14:19;101838.84;;;2.62;100.00
13695;BME280;6919;52.344;14.518;2023-04-09T04:16:48;101834.97;;;2.69;100.00
13695;BME280;6919;52.344;14.518;2023-04-09T04:19:17;101840.81;;;2.76;100.00
13695;BME280;6919;52.344;14.518;2023-04-09T04:21:45;101837.91;;;2.63;100.00
13695;BME280;6919;52.344;14.518;2023-04-09T04:24:14;101847.00;;;2.58;100.00
13695;BME280;6919;52.344;14.518;2023-04-09T04:26:43;101847.88;;;2.58;100.00
13695;BME280;6919;52.344;14.518;2023-04-09T04:29:11;101839.53;;;2.66;100.00
13695;BME280;6919;52.344;14.518;2023-04-09T04:31:40;101837.03;;;2.63;100.00
13695;BME280;6919;52.344;14.518;2023-04-09T04:34:10;101842.38;;;2.61;100.00
13695;BME280;6919;52.344;14.518;2023-04-09T04:36:39;101832.41;;;2.49;100.00
13695;BME280;6919;52.344;14.518;2023-04-09T04:39:07;101840.31;;;2.68;100.00
13695;BME280;6919;52.344;14.518;2023-04-09T04:41:36;101843.59;;;2.73;100.00
13695;BME280;6919;52.344;14.518;2023-04-09T04:44:04;101842.22;;;2.83;100.00
13695;BME280;6919;52.344;14.518;2023-04-09T04:46:33;101841.88;;;2.72;100.00
13695;BME280;6919;52.344;14.518;2023-04-09T04:49:01;101843.66;;;2.71;100.00
13695;BME280;6919;52.344;14.518;2023-04-09T04:51:31;101842.66;;;2.74;100.00
13695;BME280;6919;52.344;14.518;2023-04-09T04:54:00;101833.66;;;2.95;100.00
13695;BME280;6919;52.344;14.518;2023-04-09T04:56:28;101842.31;;;2.98;100.00
13695;BME280;6919;52.344;14.518;2023-04-09T04:58:59;101847.25;;;3.06;100.00
13695;BME280;6919;52.344;14.518;2023-04-09T05:01:27;101851.06;;;3.17;100.00
13695;BME280;6919;52.344;14.518;2023-04-09T05:03:56;101854.41;;;3.04;100.00
13695;BME280;6919;52.344;14.518;2023-04-09T05:06:24;101860.31;;;3.09;100.00
13695;BME280;6919;52.344;14.518;2023-04-09T05:08:57;101861.75;;;3.16;100.00
13695;BME280;6919;52.344;14.518;2023-04-09T05:11:25;101858.31;;;3.14;100.00
13695;BME280;6919;52.344;14.518;2023-04-09T05:13:54;101864.56;;;3.30;100.00
13695;BME280;6919;52.344;14.518;2023-04-09T05:16:22;101865.72;;;3.42;100.00
13695;BME280;6919;52.344;14.518;2023-04-09T05:18:51;101873.53;;;3.62;100.00
13695;BME280;6919;52.344;14.518;2023-04-09T05:21:20;101874.00;;;3.53;100.00
13695;BME280;6919;52.344;14.518;2023-04-09T05:23:49;101870.16;;;3.58;100.00
13695;BME280;6919;52.344;14.518;2023-04-09T05:26:19;101867.06;;;3.67;100.00
13695;BME280;6919;52.344;14.518;2023-04-09T05:28:48;101860.53;;;3.90;100.00
13695;BME280;6919;52.344;14.518;2023-04-09T05:31:18;101861.41;;;3.73;100.00
13695;BME280;6919;52.344;14.518;2023-04-09T05:33:47;101853.22;;;3.78;100.00
13695;BME280;6919;52.344;14.518;2023-04-09T05:36:16;101862.31;;;3.89;100.00
13695;BME280;6919;52.344;14.518;2023-04-09T05:38:46;101866.69;;;3.90;100.00
13695;BME280;6919;52.344;14.518;2023-04-09T05:41:14;101872.28;;;4.01;100.00
13695;BME280;6919;52.344;14.518;2023-04-09T05:43:44;101864.78;;;4.09;100.00
13695;BME280;6919;52.344;14.518;2023-04-09T05:46:13;101871.06;;;4.39;100.00
13695;BME280;6919;52.344;14.518;2023-04-09T05:48:42;101871.91;;;4.24;100.00
13695;BME280;6919;52.344;14.518;2023-04-09T05:51:10;101872.03;;;4.38;100.00
13695;BME280;6919;52.344;14.518;2023-04-09T05:53:39;101866.97;;;4.49;100.00
13695;BME280;6919;52.344;14.518;2023-04-09T05:56:12;101867.22;;;4.45;100.00
13695;BME280;6919;52.344;14.518;2023-04-09T05:58:41;101872.13;;;4.52;100.00
13695;BME280;6919;52.344;14.518;2023-04-09T06:01:11;101869.53;;;4.66;100.00
13695;BME280;6919;52.344;14.518;2023-04-09T06:03:40;101866.81;;;4.68;100.00
13695;BME280;6919;52.344;14.518;2023-04-09T06:06:09;101870.47;;;4.81;100.00
13695;BME280;6919;52.344;14.518;2023-04-09T06:08:37;101875.28;;;4.90;100.00
13695;BME280;6919;52.344;14.518;2023-04-09T06:11:08;101873.66;;;4.87;100.00
13695;BME280;6919;52.344;14.518;2023-04-09T06:13:37;101880.34;;;4.94;100.00
13695;BME280;6919;52.344;14.518;2023-04-09T06:16:07;101870.25;;;5.15;100.00
13695;BME280;6919;52.344;14.518;2023-04-09T06:18:37;101871.84;;;5.33;100.00
13695;BME280;6919;52.344;14.518;2023-04-09T06:21:07;101858.16;;;5.25;100.00
13695;BME280;6919;52.344;14.518;2023-04-09T06:23:36;101868.91;;;5.37;100.00
13695;BME280;6919;52.344;14.518;2023-04-09T06:26:05;101873.59;;;5.48;100.00
13695;BME280;6919;52.344;14.518;2023-04-09T06:28:33;101863.31;;;5.71;100.00
13695;BME280;6919;52.344;14.518;2023-04-09T06:31:02;101866.13;;;5.84;100.00
13695;BME280;6919;52.344;14.518;2023-04-09T06:33:31;101867.66;;;6.02;100.00
13695;BME280;6919;52.344;14.518;2023-04-09T06:36:01;101874.00;;;5.99;100.00
13695;BME280;6919;52.344;14.518;2023-04-09T06:38:29;101875.72;;;6.15;100.00
13695;BME280;6919;52.344;14.518;2023-04-09T06:40:58;101879.22;;;6.43;100.00
13695;BME280;6919;52.344;14.518;2023-04-09T06:43:27;101869.44;;;6.44;100.00
13695;BME280;6919;52.344;14.518;2023-04-09T06:45:55;101872.38;;;6.39;100.00
13695;BME280;6919;52.344;14.518;2023-04-09T06:48:24;101866.22;;;6.25;100.00
13695;BME280;6919;52.344;14.518;2023-04-09T06:50:52;101865.63;;;6.20;100.00
13695;BME280;6919;52.344;14.518;2023-04-09T06:53:22;101859.56;;;6.18;100.00
13695;BME280;6919;52.344;14.518;2023-04-09T06:55:51;101858.78;;;6.44;100.00
13695;BME280;6919;52.344;14.518;2023-04-09T06:58:22;101859.78;;;6.69;100.00
13695;BME280;6919;52.344;14.518;2023-04-09T07:00:50;101860.38;;;6.46;100.00
13695;BME280;6919;52.344;14.518;2023-04-09T07:03:19;101872.78;;;6.74;100.00
13695;BME280;6919;52.344;14.518;2023-04-09T07:05:48;101881.91;;;6.84;100.00
13695;BME280;6919;52.344;14.518;2023-04-09T07:08:16;101878.78;;;6.77;100.00
13695;BME280;6919;52.344;14.518;2023-04-09T07:10:46;101871.56;;;6.79;100.00
13695;BME280;6919;52.344;14.518;2023-04-09T07:13:15;101865.91;;;6.84;100.00
13695;BME280;6919;52.344;14.518;2023-04-09T07:15:43;101868.38;;;6.87;100.00
13695;BME280;6919;52.344;14.518;2023-04-09T07:18:12;101874.00;;;7.09;100.00
13695;BME280;6919;52.344;14.518;2023-04-09T07:20:40;101866.16;;;7.20;100.00
13695;BME280;6919;52.344;14.518;2023-04-09T07:23:09;101871.38;;;7.21;100.00
13695;BME280;6919;52.344;14.518;2023-04-09T07:25:38;101871.13;;;7.38;100.00
13695;BME280;6919;52.344;14.518;2023-04-09T07:28:08;101877.97;;;7.55;100.00
13695;BME280;6919;52.344;14.518;2023-04-09T07:30:39;101871.81;;;7.15;100.00
13695;BME280;6919;52.344;14.518;2023-04-09T07:33:08;101884.56;;;7.37;100.00
13695;BME280;6919;52.344;14.518;2023-04-09T07:35:37;101882.38;;;7.17;100.00
13695;BME280;6919;52.344;14.518;2023-04-09T07:38:05;101876.19;;;7.16;100.00
13695;BME280;6919;52.344;14.518;2023-04-09T07:40:34;101879.91;;;7.14;100.00
13695;BME280;6919;52.344;14.518;2023-04-09T07:43:04;101873.81;;;7.12;100.00
13695;BME280;6919;52.344;14.518;2023-04-09T07:45:35;101867.63;;;7.11;100.00
13695;BME280;6919;52.344;14.518;2023-04-09T07:48:04;101873.56;;;7.29;100.00
13695;BME280;6919;52.344;14.518;2023-04-09T07:50:32;101882.47;;;7.54;100.00
13695;BME280;6919;52.344;14.518;2023-04-09T07:53:01;101885.81;;;7.83;100.00
13695;BME280;6919;52.344;14.518;2023-04-09T07:55:30;101880.81;;;7.91;100.00
13695;BME280;6919;52.344;14.518;2023-04-09T07:57:58;101855.72;;;7.93;100.00
13695;BME280;6919;52.344;14.518;2023-04-09T08:00:27;101861.59;;;8.23;100.00
13695;BME280;6919;52.344;14.518;2023-04-09T08:02:57;101853.63;;;8.47;100.00
13695;BME280;6919;52.344;14.518;2023-04-09T08:05:26;101855.69;;;8.43;100.00
13695;BME280;6919;52.344;14.518;2023-04-09T08:07:55;101867.13;;;8.20;100.00
13695;BME280;6919;52.344;14.518;2023-04-09T08:10:23;101865.84;;;8.13;100.00
13695;BME280;6919;52.344;14.518;2023-04-09T08:12:52;101865.22;;;8.10;100.00
13695;BME280;6919;52.344;14.518;2023-04-09T08:15:21;101861.59;;;8.23;100.00
13695;BME280;6919;52.344;14.518;2023-04-09T08:17:49;101866.28;;;8.81;100.00
13695;BME280;6919;52.344;14.518;2023-04-09T08:20:20;101860.22;;;8.79;100.00
13695;BME280;6919;52.344;14.518;2023-04-09T08:22:48;101858.00;;;8.60;100.00
13695;BME280;6919;52.344;14.518;2023-04-09T08:25:17;101856.94;;;8.63;100.00
13695;BME280;6919;52.344;14.518;2023-04-09T08:27:46;101862.19;;;8.52;100.00
13695;BME280;6919;52.344;14.518;2023-04-09T08:30:15;101858.34;;;8.56;100.00
13695;BME280;6919;52.344;14.518;2023-04-09T08:32:45;101850.00;;;8.60;100.00
13695;BME280;6919;52.344;14.518;2023-04-09T08:35:14;101848.75;;;8.77;100.00
13695;BME280;6919;52.344;14.518;2023-04-09T08:37:44;101850.00;;;8.84;100.00
13695;BME280;6919;52.344;14.518;2023-04-09T08:40:13;101849.09;;;9.20;100.00
13695;BME280;6919;52.344;14.518;2023-04-09T08:42:43;101844.97;;;9.27;100.00
13695;BME280;6919;52.344;14.518;2023-04-09T08:45:13;101854.31;;;9.21;100.00
13695;BME280;6919;52.344;14.518;2023-04-09T08:47:41;101858.69;;;9.11;100.00
13695;BME280;6919;52.344;14.518;2023-04-09T08:50:11;101859.22;;;9.27;100.00
13695;BME280;6919;52.344;14.518;2023-04-09T08:52:40;101867.63;;;9.34;100.00
13695;BME280;6919;52.344;14.518;2023-04-09T08:55:11;101869.66;;;9.19;100.00
13695;BME280;6919;52.344;14.518;2023-04-09T08:57:41;101857.59;;;9.48;100.00
13695;BME280;6919;52.344;14.518;2023-04-09T09:00:10;101856.22;;;9.77;100.00
13695;BME280;6919;52.344;14.518;2023-04-09T09:03:00;101853.31;;;9.91;100.00
13695;BME280;6919;52.344;14.518;2023-04-09T09:05:35;101864.00;;;9.80;100.00
13695;BME280;6919;52.344;14.518;2023-04-09T09:08:05;101858.69;;;9.91;100.00
13695;BME280;6919;52.344;14.518;2023-04-09T09:10:39;101859.03;;;9.41;100.00
13695;BME280;6919;52.344;14.518;2023-04-09T09:13:19;101866.91;;;9.66;100.00
13695;BME280;6919;52.344;14.518;2023-04-09T09:15:53;101862.88;;;10.06;100.00
13695;BME280;6919;52.344;14.518;2023-04-09T09:18:37;101864.72;;;10.28;100.00
13695;BME280;6919;52.344;14.518;2023-04-09T09:21:10;101867.50;;;10.37;100.00
13695;BME280;6919;52.344;14.518;2023-04-09T09:23:39;101871.03;;;10.05;100.00
13695;BME280;6919;52.344;14.518;2023-04-09T09:26:14;101869.16;;;9.94;100.00
13695;BME280;6919;52.344;14.518;2023-04-09T09:28:45;101865.25;;;9.98;100.00
13695;BME280;6919;52.344;14.518;2023-04-09T09:31:15;101872.16;;;9.68;100.00
13695;BME280;6919;52.344;14.518;2023-04-09T09:33:44;101867.16;;;9.74;100.00
13695;BME280;6919;52.344;14.518;2023-04-09T09:36:14;101863.38;;;9.66;100.00
13695;BME280;6919;52.344;14.518;2023-04-09T09:38:53;101854.53;;;9.98;100.00
13695;BME280;6919;52.344;14.518;2023-04-09T09:41:24;101850.28;;;9.85;100.00
13695;BME280;6919;52.344;14.518;2023-04-09T09:43:53;101842.56;;;10.26;100.00
13695;BME280;6919;52.344;14.518;2023-04-09T09:46:22;101849.38;;;10.30;100.00
13695;BME280;6919;52.344;14.518;2023-04-09T09:48:52;101849.03;;;9.78;100.00
13695;BME280;6919;52.344;14.518;2023-04-09T09:51:25;101861.06;;;10.18;100.00
13695;BME280;6919;52.344;14.518;2023-04-09T09:53:56;101850.09;;;10.32;100.00
13695;BME280;6919;52.344;14.518;2023-04-09T09:56:30;101851.34;;;9.71;100.00
13695;BME280;6919;52.344;14.518;2023-04-09T09:59:05;101854.75;;;9.73;100.00
13695;BME280;6919;52.344;14.518;2023-04-09T10:01:34;101859.41;;;9.82;100.00
13695;BME280;6919;52.344;14.518;2023-04-09T10:04:05;101850.06;;;9.99;100.00
13695;BME280;6919;52.344;14.518;2023-04-09T10:06:34;101852.94;;;9.85;100.00
13695;BME280;6919;52.344;14.518;2023-04-09T10:09:05;101849.13;;;9.54;100.00
13695;BME280;6919;52.344;14.518;2023-04-09T10:11:36;101854.47;;;9.54;100.00
13695;BME280;6919;52.344;14.518;2023-04-09T10:14:09;101856.06;;;9.57;100.00
13695;BME280;6919;52.344;14.518;2023-04-09T10:16:38;101859.97;;;9.64;100.00
13695;BME280;6919;52.344;14.518;2023-04-09T10:19:07;101850.94;;;9.65;100.00
13695;BME280;6919;52.344;14.518;2023-04-09T10:21:44;101847.16;;;9.56;100.00
13695;BME280;6919;52.344;14.518;2023-04-09T10:24:20;101847.44;;;9.64;100.00
13695;BME280;6919;52.344;14.518;2023-04-09T10:26:53;101850.03;;;9.77;100.00
13695;BME280;6919;52.344;14.518;2023-04-09T10:29:27;101833.34;;;9.84;100.00
13695;BME280;6919;52.344;14.518;2023-04-09T10:32:04;101845.53;;;9.99;100.00
13695;BME280;6919;52.344;14.518;2023-04-09T10:34:36;101846.81;;;10.17;100.00
13695;BME280;6919;52.344;14.518;2023-04-09T10:37:07;101846.44;;;10.22;100.00
13695;BME280;6919;52.344;14.518;2023-04-09T10:39:39;101845.72;;;10.31;100.00
13695;BME280;6919;52.344;14.518;2023-04-09T10:42:13;101849.06;;;9.89;100.00
13695;BME280;6919;52.344;14.518;2023-04-09T10:44:42;101848.75;;;9.59;100.00
13695;BME280;6919;52.344;14.518;2023-04-09T10:47:31;101846.56;;;9.64;100.00
13695;BME280;6919;52.344;14.518;2023-04-09T10:50:17;101842.69;;;9.68;100.00
13695;BME280;6919;52.344;14.518;2023-04-09T10:52:51;101842.91;;;9.65;100.00
13695;BME280;6919;52.344;14.518;2023-04-09T10:55:34;101849.13;;;9.54;100.00
13695;BME280;6919;52.344;14.518;2023-04-09T10:58:14;101845.03;;;9.94;100.00
13695;BME280;6919;52.344;14.518;2023-04-09T11:00:49;101850.75;;;10.01;100.00
13695;BME280;6919;52.344;14.518;2023-04-09T11:03:23;101853.88;;;10.29;100.00
13695;BME280;6919;52.344;14.518;2023-04-09T11:05:59;101840.59;;;10.39;100.00
13695;BME280;6919;52.344;14.518;2023-04-09T11:08:30;101845.69;;;10.42;100.00
13695;BME280;6919;52.344;14.518;2023-04-09T11:10:59;101839.34;;;10.43;100.00
13695;BME280;6919;52.344;14.518;2023-04-09T11:13:31;101846.03;;;10.59;100.00
13695;BME280;6919;52.344;14.518;2023-04-09T11:16:00;101845.78;;;10.73;100.00
13695;BME280;6919;52.344;14.518;2023-04-09T11:18:34;101850.69;;;10.57;100.00
13695;BME280;6919;52.344;14.518;2023-04-09T11:21:03;101849.84;;;11.10;100.00
13695;BME280;6919;52.344;14.518;2023-04-09T11:23:32;101842.94;;;10.86;100.00
13695;BME280;6919;52.344;14.518;2023-04-09T11:26:01;101836.97;;;10.82;100.00
13695;BME280;6919;52.344;14.518;2023-04-09T11:28:33;101834.63;;;10.46;100.00
13695;BME280;6919;52.344;14.518;2023-04-09T11:31:04;101834.47;;;10.59;100.00
13695;BME280;6919;52.344;14.518;2023-04-09T11:33:33;101833.25;;;10.63;100.00
13695;BME280;6919;52.344;14.518;2023-04-09T11:36:04;101833.22;;;10.74;100.00
13695;BME280;6919;52.344;14.518;2023-04-09T11:38:35;101832.34;;;10.73;100.00
13695;BME280;6919;52.344;14.518;2023-04-09T11:41:04;101835.25;;;10.92;100.00
13695;BME280;6919;52.344;14.518;2023-04-09T11:43:35;101830.50;;;10.85;100.00
13695;BME280;6919;52.344;14.518;2023-04-09T11:46:04;101821.38;;;10.76;100.00
13695;BME280;6919;52.344;14.518;2023-04-09T11:48:34;101816.22;;;10.95;100.00
13695;BME280;6919;52.344;14.518;2023-04-09T11:51:02;101817.00;;;10.75;100.00
13695;BME280;6919;52.344;14.518;2023-04-09T11:53:31;101817.25;;;10.72;100.00
13695;BME280;6919;52.344;14.518;2023-04-09T11:56:00;101821.25;;;10.78;100.00
13695;BME280;6919;52.344;14.518;2023-04-09T11:58:29;101822.81;;;10.80;100.00
13695;BME280;6919;52.344;14.518;2023-04-09T12:00:59;101822.31;;;11.29;100.00
13695;BME280;6919;52.344;14.518;2023-04-09T12:03:28;101830.13;;;11.21;100.00
13695;BME280;6919;52.344;14.518;2023-04-09T12:06:00;101824.31;;;11.36;100.00
13695;BME280;6919;52.344;14.518;2023-04-09T12:08:30;101822.47;;;11.16;100.00
13695;BME280;6919;52.344;14.518;2023-04-09T12:11:07;101828.69;;;11.48;100.00
13695;BME280;6919;52.344;14.518;2023-04-09T12:13:37;101839.06;;;11.73;100.00
13695;BME280;6919;52.344;14.518;2023-04-09T12:16:10;101832.44;;;11.77;100.00
13695;BME280;6919;52.344;14.518;2023-04-09T12:18:40;101830.13;;;11.73;100.00
13695;BME280;6919;52.344;14.518;2023-04-09T12:21:08;101829.53;;;11.90;100.00
13695;BME280;6919;52.344;14.518;2023-04-09T12:23:37;101837.03;;;12.17;100.00
13695;BME280;6919;52.344;14.518;2023-04-09T12:26:05;101829.84;;;12.17;100.00
13695;BME280;6919;52.344;14.518;2023-04-09T12:28:34;101832.03;;;11.61;100.00
13695;BME280;6919;52.344;14.518;2023-04-09T12:31:03;101840.97;;;11.62;100.00
13695;BME280;6919;52.344;14.518;2023-04-09T12:33:33;101842.03;;;11.59;100.00
13695;BME280;6919;52.344;14.518;2023-04-09T12:36:05;101840.09;;;11.61;100.00
13695;BME280;6919;52.344;14.518;2023-04-09T12:38:33;101837.59;;;11.90;100.00
13695;BME280;6919;52.344;14.518;2023-04-09T12:41:02;101839.00;;;12.15;100.00
13695;BME280;6919;52.344;14.518;2023-04-09T12:43:31;101833.06;;;12.11;100.00
13695;BME280;6919;52.344;14.518;2023-04-09T12:45:59;101821.13;;;12.04;100.00
13695;BME280;6919;52.344;14.518;2023-04-09T12:48:28;101822.88;;;12.15;100.00
13695;BME280;6919;52.344;14.518;2023-04-09T12:50:58;101813.00;;;12.25;100.00
13695;BME280;6919;52.344;14.518;2023-04-09T12:53:26;101820.66;;;11.99;100.00
13695;BME280;6919;52.344;14.518;2023-04-09T12:55:55;101814.25;;;12.51;100.00
13695;BME280;6919;52.344;14.518;2023-04-09T12:58:23;101810.19;;;12.66;100.00
13695;BME280;6919;52.344;14.518;2023-04-09T13:00:52;101805.56;;;12.38;100.00
13695;BME280;6919;52.344;14.518;2023-04-09T13:03:23;101805.41;;;12.30;100.00